createdAt,value
2023-03-28T00:00:58.178Z,17.95
2023-03-28T00:03:27.512Z,16.92
2023-03-28T00:05:57.669Z,21.20
2023-03-28T00:08:25.965Z,13.48
2023-03-28T00:10:54.075Z,14.88
2023-03-28T00:13:23.517Z,11.45
2023-03-28T00:15:52.965Z,17.58
2023-03-28T00:18:21.081Z,17.98
2023-03-28T00:20:49.695Z,16.98
2023-03-28T00:23:18.388Z,21.50
2023-03-28T00:25:47.049Z,14.60
2023-03-28T00:28:15.144Z,12.90
2023-03-28T00:30:44.721Z,9.88
2023-03-28T00:33:12.876Z,15.52
2023-03-28T00:35:40.998Z,15.13
2023-03-28T00:38:09.881Z,20.90
2023-03-28T00:40:38.893Z,16.23
2023-03-28T00:43:07.022Z,20.50
2023-03-28T00:45:35.348Z,18.17
2023-03-28T00:48:14.178Z,10.25
2023-03-28T00:50:47.013Z,11.77
2023-03-28T00:53:17.221Z,15.57
2023-03-28T00:55:48.836Z,21.30
2023-03-28T00:58:19.588Z,14.25
2023-03-28T01:00:47.823Z,17.95
2023-03-28T01:03:18.794Z,31.10
2023-03-28T01:05:48.678Z,20.30
2023-03-28T01:08:19.673Z,14.43
2023-03-28T01:10:48.865Z,16.33
2023-03-28T01:13:19.295Z,11.60
2023-03-28T01:15:51.349Z,16.92
2023-03-28T01:18:22.834Z,10.57
2023-03-28T01:21:25.831Z,11.55
2023-03-28T01:24:31.196Z,13.52
2023-03-28T01:27:03.822Z,9.73
2023-03-28T01:30:19.834Z,13.70
2023-03-28T01:33:23.539Z,22.13
2023-03-28T01:36:34.071Z,13.25
2023-03-28T01:39:12.973Z,16.08
2023-03-28T01:41:45.808Z,18.70
2023-03-28T01:44:20.429Z,14.70
2023-03-28T01:46:54.717Z,21.83
2023-03-28T01:49:30.220Z,18.13
2023-03-28T01:51:59.598Z,12.45
2023-03-28T01:54:32.150Z,19.88
2023-03-28T01:57:06.502Z,18.08
2023-03-28T01:59:38.284Z,15.10
2023-03-28T02:02:10.866Z,18.75
2023-03-28T02:04:40.100Z,21.20
2023-03-28T02:07:10.998Z,16.15
2023-03-28T02:09:44.029Z,17.38
2023-03-28T02:12:15.501Z,23.77
2023-03-28T02:14:44.489Z,19.40
2023-03-28T02:17:16.690Z,15.77
2023-03-28T02:19:49.025Z,14.27
2023-03-28T02:22:21.196Z,19.38
2023-03-28T02:24:52.081Z,20.40
2023-03-28T02:27:22.729Z,24.38
2023-03-28T02:29:51.248Z,29.15
2023-03-28T02:32:21.759Z,15.13
2023-03-28T02:34:51.486Z,25.13
2023-03-28T02:37:29.940Z,24.48
2023-03-28T02:40:09.948Z,34.53
2023-03-28T02:43:05.346Z,22.02
2023-03-28T02:46:03.276Z,12.90
2023-03-28T02:48:42.813Z,25.15
2023-03-28T02:51:19.112Z,20.60
2023-03-28T02:53:52.890Z,27.30
2023-03-28T02:56:28.006Z,20.27
2023-03-28T02:58:58.936Z,16.10
2023-03-28T03:01:29.125Z,16.25
2023-03-28T03:03:58.341Z,21.52
2023-03-28T03:06:26.864Z,19.90
2023-03-28T03:08:54.943Z,22.08
2023-03-28T03:11:28.047Z,30.70
2023-03-28T03:13:57.416Z,18.30
2023-03-28T03:16:25.579Z,14.13
2023-03-28T03:18:53.681Z,18.13
2023-03-28T03:21:21.789Z,23.60
2023-03-28T03:23:49.878Z,25.67
2023-03-28T03:26:18.000Z,20.80
2023-03-28T03:28:47.552Z,21.85
2023-03-28T03:31:17.346Z,23.67
2023-03-28T03:33:45.492Z,14.88
2023-03-28T03:36:17.130Z,19.27
2023-03-28T03:38:45.256Z,29.50
2023-03-28T03:41:13.315Z,19.00
2023-03-28T03:43:41.425Z,20.73
2023-03-28T03:46:10.989Z,15.93
2023-03-28T03:48:39.119Z,21.10
2023-03-28T03:51:18.445Z,26.60
2023-03-28T03:53:46.821Z,17.67
2023-03-28T03:56:14.949Z,20.23
2023-03-28T03:58:43.086Z,23.27
2023-03-28T04:01:14.073Z,21.38
2023-03-28T04:03:42.925Z,21.30
2023-03-28T04:06:11.872Z,28.08
2023-03-28T04:08:40.018Z,19.45
2023-03-28T04:11:10.526Z,18.08
2023-03-28T04:13:39.068Z,20.40
2023-03-28T04:16:08.685Z,22.50
2023-03-28T04:18:38.225Z,21.88
2023-03-28T04:21:09.650Z,26.15
2023-03-28T04:23:38.743Z,28.02
2023-03-28T04:26:08.786Z,29.83
2023-03-28T04:28:39.341Z,24.20
2023-03-28T04:31:07.912Z,22.85
2023-03-28T04:33:40.386Z,21.42
2023-03-28T04:36:10.949Z,14.25
2023-03-28T04:38:41.776Z,25.40
2023-03-28T04:41:10.358Z,30.88
2023-03-28T04:43:38.656Z,23.10
2023-03-28T04:46:07.345Z,16.27
2023-03-28T04:48:35.907Z,24.52
2023-03-28T04:51:05.891Z,19.83
2023-03-28T04:53:33.956Z,21.48
2023-03-28T04:56:03.050Z,19.33
2023-03-28T04:58:31.189Z,20.08
2023-03-28T05:01:03.152Z,28.20
2023-03-28T05:03:31.699Z,24.23
2023-03-28T05:05:59.820Z,22.50
2023-03-28T05:08:29.382Z,49.35
2023-03-28T05:10:57.609Z,27.25
2023-03-28T05:13:25.977Z,36.70
2023-03-28T05:15:54.281Z,21.90
2023-03-28T05:18:22.413Z,28.50
2023-03-28T05:20:50.781Z,30.50
2023-03-28T05:23:18.878Z,26.13
2023-03-28T05:25:52.879Z,34.00
2023-03-28T05:28:21.300Z,34.08
2023-03-28T05:30:49.432Z,27.85
2023-03-28T05:33:17.587Z,30.27
2023-03-28T05:35:45.866Z,27.35
2023-03-28T05:38:14.362Z,25.55
2023-03-28T05:40:42.463Z,27.98
2023-03-28T05:43:12.050Z,19.77
2023-03-28T05:45:40.199Z,23.17
2023-03-28T05:48:08.354Z,27.55
2023-03-28T05:50:36.534Z,30.38
2023-03-28T05:53:04.677Z,26.30
2023-03-28T05:55:35.437Z,22.98
2023-03-28T05:58:05.355Z,20.25
2023-03-28T06:00:34.974Z,17.08
2023-03-28T06:03:03.363Z,31.10
2023-03-28T06:05:31.665Z,25.00
2023-03-28T06:07:59.745Z,26.08
2023-03-28T06:10:27.847Z,35.20
2023-03-28T06:12:55.941Z,33.67
2023-03-28T06:15:24.107Z,35.08
2023-03-28T06:17:53.607Z,34.63
2023-03-28T06:20:21.726Z,34.40
2023-03-28T06:22:49.798Z,37.42
2023-03-28T06:25:18.023Z,25.42
2023-03-28T06:27:46.227Z,29.77
2023-03-28T06:30:15.566Z,33.40
2023-03-28T06:32:43.697Z,40.45
2023-03-28T06:35:13.134Z,38.47
2023-03-28T06:37:41.288Z,39.47
2023-03-28T06:40:10.193Z,41.15
2023-03-28T06:42:38.262Z,35.38
2023-03-28T06:45:07.213Z,25.70
2023-03-28T06:47:35.561Z,33.03
2023-03-28T06:50:03.658Z,44.00
2023-03-28T06:52:33.127Z,34.13
2023-03-28T06:55:01.176Z,29.63
2023-03-28T06:57:29.261Z,23.65
2023-03-28T06:59:57.412Z,33.40
2023-03-28T07:02:25.600Z,23.58
2023-03-28T07:04:55.838Z,20.92
2023-03-28T07:07:23.927Z,16.30
2023-03-28T07:09:54.748Z,32.40
2023-03-28T07:12:22.964Z,50.33
2023-03-28T07:14:51.024Z,52.03
2023-03-28T07:17:19.113Z,31.65
2023-03-28T07:19:49.191Z,38.65
2023-03-28T07:22:17.294Z,45.40
2023-03-28T07:24:45.360Z,48.97
2023-03-28T07:27:16.936Z,35.78
2023-03-28T07:29:45.415Z,30.27
2023-03-28T07:32:14.007Z,32.60
2023-03-28T07:34:42.395Z,30.60
2023-03-28T07:37:10.956Z,25.20
2023-03-28T07:39:41.951Z,23.95
2023-03-28T07:42:12.102Z,23.60
2023-03-28T07:44:42.479Z,23.85
2023-03-28T07:47:11.363Z,18.20
2023-03-28T07:49:41.117Z,21.60
2023-03-28T07:52:09.757Z,18.88
2023-03-28T07:54:37.831Z,29.17
2023-03-28T07:57:06.312Z,12.13
2023-03-28T07:59:34.874Z,21.23
2023-03-28T08:02:04.598Z,24.23
2023-03-28T08:04:32.841Z,22.23
2023-03-28T08:07:02.306Z,31.92
2023-03-28T08:09:30.388Z,27.58
2023-03-28T08:11:58.488Z,30.42
2023-03-28T08:14:26.577Z,17.88
2023-03-28T08:16:54.698Z,18.05
2023-03-28T08:19:24.152Z,27.98
2023-03-28T08:21:52.256Z,18.90
2023-03-28T08:24:32.775Z,14.23
2023-03-28T08:27:03.874Z,17.88
2023-03-28T08:29:32.177Z,20.98
2023-03-28T08:32:00.306Z,18.13
2023-03-28T08:34:29.760Z,18.75
2023-03-28T08:36:59.165Z,26.13
2023-03-28T08:39:27.469Z,19.88
2023-03-28T08:42:23.764Z,17.48
2023-03-28T08:45:08.881Z,16.92
2023-03-28T08:47:42.057Z,10.00
2023-03-28T08:50:18.516Z,11.32
2023-03-28T08:52:47.639Z,22.25
2023-03-28T08:55:25.534Z,13.82
2023-03-28T08:57:55.745Z,17.05
2023-03-28T09:00:27.597Z,16.80
2023-03-28T09:02:56.691Z,13.45
2023-03-28T09:05:34.405Z,16.58
2023-03-28T09:08:14.331Z,17.55
2023-03-28T09:10:45.188Z,10.73
2023-03-28T09:13:29.384Z,15.32
2023-03-28T09:16:24.759Z,17.33
2023-03-28T09:19:10.521Z,8.00
2023-03-28T09:21:49.845Z,16.92
2023-03-28T09:24:43.707Z,20.70
2023-03-28T09:27:17.938Z,12.50
2023-03-28T09:29:46.616Z,10.38
2023-03-28T09:32:21.221Z,15.80
2023-03-28T09:34:51.298Z,11.75
2023-03-28T09:37:29.321Z,15.77
2023-03-28T09:40:00.390Z,10.35
2023-03-28T09:42:35.418Z,9.38
2023-03-28T09:45:08.165Z,9.77
2023-03-28T09:47:36.584Z,11.75
2023-03-28T09:50:12.834Z,16.35
2023-03-28T09:52:43.165Z,10.52
2023-03-28T09:55:18.226Z,11.93
2023-03-28T09:58:07.394Z,11.80
2023-03-28T10:00:37.961Z,17.23
2023-03-28T10:03:08.394Z,16.42
2023-03-28T10:05:38.623Z,18.13
2023-03-28T10:08:22.682Z,15.73
2023-03-28T10:11:06.920Z,19.63
2023-03-28T10:13:38.934Z,12.20
2023-03-28T10:16:09.106Z,15.52
2023-03-28T10:18:39.244Z,14.05
2023-03-28T10:21:11.762Z,14.63
2023-03-28T10:23:45.160Z,7.00
2023-03-28T10:26:14.073Z,14.60
2023-03-28T10:28:43.410Z,8.20
2023-03-28T10:31:22.716Z,7.80
2023-03-28T10:33:53.998Z,15.23
2023-03-28T10:36:31.619Z,13.20
2023-03-28T10:39:02.302Z,6.97
2023-03-28T10:41:31.136Z,13.55
2023-03-28T10:43:59.255Z,7.22
2023-03-28T10:46:31.787Z,15.35
2023-03-28T10:49:04.976Z,12.13
2023-03-28T10:51:33.641Z,7.72
2023-03-28T10:54:15.564Z,10.73
2023-03-28T10:56:52.807Z,11.65
2023-03-28T10:59:47.797Z,9.60
2023-03-28T11:02:40.324Z,9.13
2023-03-28T11:05:29.611Z,10.88
2023-03-28T11:08:03.698Z,9.90
2023-03-28T11:10:39.508Z,7.03
2023-03-28T11:13:18.732Z,6.60
2023-03-28T11:15:54.834Z,10.57
2023-03-28T11:18:32.779Z,7.85
2023-03-28T11:21:10.549Z,13.20
2023-03-28T11:23:49.602Z,7.97
2023-03-28T11:26:23.472Z,9.25
2023-03-28T11:29:08.797Z,8.40
2023-03-28T11:31:41.592Z,8.10
2023-03-28T11:34:15.939Z,4.57
2023-03-28T11:36:48.793Z,5.05
2023-03-28T11:39:22.591Z,5.35
2023-03-28T11:41:52.998Z,6.97
2023-03-28T11:44:23.697Z,7.40
2023-03-28T11:46:55.901Z,6.43
2023-03-28T11:49:27.171Z,6.63
2023-03-28T11:52:00.145Z,7.47
2023-03-28T11:54:33.578Z,8.27
2023-03-28T11:57:08.118Z,11.65
2023-03-28T11:59:41.829Z,14.32
2023-03-28T12:02:19.560Z,9.48
2023-03-28T12:04:51.286Z,15.98
2023-03-28T12:07:22.978Z,9.63
2023-03-28T12:09:58.874Z,8.00
2023-03-28T12:12:31.500Z,13.32
2023-03-28T12:15:05.057Z,9.25
2023-03-28T12:17:36.626Z,6.22
2023-03-28T12:20:08.253Z,12.45
2023-03-28T12:22:42.187Z,5.82
2023-03-28T12:25:14.624Z,9.07
2023-03-28T12:27:55.302Z,10.02
2023-03-28T12:30:26.547Z,6.50
2023-03-28T12:33:03.316Z,6.82
2023-03-28T12:35:37.634Z,5.65
2023-03-28T12:38:17.046Z,7.45
2023-03-28T12:40:55.626Z,5.38
2023-03-28T12:43:28.955Z,7.85
2023-03-28T12:46:00.957Z,6.32
2023-03-28T12:48:36.264Z,9.45
2023-03-28T12:51:10.239Z,8.18
2023-03-28T12:53:44.784Z,5.47
2023-03-28T12:56:16.493Z,6.68
2023-03-28T12:58:48.977Z,6.30
2023-03-28T13:01:38.172Z,3.50
2023-03-28T13:04:15.475Z,11.23
2023-03-28T13:06:49.249Z,2.47
2023-03-28T13:09:45.832Z,5.10
2023-03-28T13:12:41.140Z,11.52
2023-03-28T13:15:32.288Z,7.75
2023-03-28T13:18:25.931Z,6.25
2023-03-28T13:20:54.856Z,6.20
2023-03-28T13:23:32.550Z,6.80
2023-03-28T13:26:02.552Z,10.55
2023-03-28T13:28:33.335Z,6.47
2023-03-28T13:31:07.999Z,7.03
2023-03-28T13:33:38.291Z,5.60
2023-03-28T13:36:21.317Z,7.32
2023-03-28T13:38:51.175Z,6.13
2023-03-28T13:41:50.727Z,12.60
2023-03-28T13:44:21.317Z,5.38
2023-03-28T13:46:51.983Z,7.03
2023-03-28T13:49:22.254Z,5.30
2023-03-28T13:51:54.638Z,10.45
2023-03-28T13:54:23.767Z,6.80
2023-03-28T13:56:53.341Z,9.50
2023-03-28T13:59:24.374Z,8.02
2023-03-28T14:01:55.913Z,7.05
2023-03-28T14:04:26.234Z,8.30
2023-03-28T14:06:55.649Z,8.93
2023-03-28T14:09:32.376Z,3.83
2023-03-28T14:12:02.479Z,5.18
2023-03-28T14:14:32.803Z,9.90
2023-03-28T14:17:03.728Z,11.38
2023-03-28T14:19:37.728Z,5.63
2023-03-28T14:22:08.575Z,9.63
2023-03-28T14:24:36.736Z,6.03
2023-03-28T14:27:10.623Z,6.07
2023-03-28T14:29:52.886Z,6.43
2023-03-28T14:32:26.642Z,5.22
2023-03-28T14:34:56.373Z,9.50
2023-03-28T14:37:25.704Z,10.20
2023-03-28T14:39:54.391Z,6.82
2023-03-28T14:42:24.392Z,6.68
2023-03-28T14:44:54.300Z,5.80
2023-03-28T14:47:28.540Z,6.45
2023-03-28T14:49:56.755Z,11.77
2023-03-28T14:52:27.646Z,6.90
2023-03-28T14:54:56.056Z,6.82
2023-03-28T14:57:24.366Z,8.70
2023-03-28T14:59:53.052Z,7.90
2023-03-28T15:02:27.512Z,6.22
2023-03-28T15:04:56.899Z,4.75
2023-03-28T15:07:28.271Z,7.80
2023-03-28T15:10:09.054Z,5.75
2023-03-28T15:12:43.261Z,5.68
2023-03-28T15:15:17.198Z,4.50
2023-03-28T15:17:47.493Z,5.75
2023-03-28T15:20:18.957Z,5.25
2023-03-28T15:22:50.312Z,12.05
2023-03-28T15:25:18.626Z,5.53
2023-03-28T15:27:51.120Z,5.82
2023-03-28T15:30:20.990Z,4.65
2023-03-28T15:32:51.405Z,2.60
2023-03-28T15:35:28.774Z,3.03
2023-03-28T15:38:06.491Z,2.70
2023-03-28T15:40:39.285Z,3.78
2023-03-28T15:43:08.022Z,4.60
2023-03-28T15:45:45.714Z,7.53
2023-03-28T15:48:18.219Z,4.88
2023-03-28T15:50:50.535Z,1.95
2023-03-28T15:53:19.986Z,5.55
2023-03-28T15:55:49.788Z,4.95
2023-03-28T15:58:20.286Z,4.20
2023-03-28T16:00:50.122Z,2.40
2023-03-28T16:03:34.499Z,3.92
2023-03-28T16:06:33.772Z,5.53
2023-03-28T16:09:19.976Z,5.07
2023-03-28T16:11:51.539Z,3.80
2023-03-28T16:14:20.799Z,3.90
2023-03-28T16:16:48.928Z,3.00
2023-03-28T16:19:21.162Z,8.95
2023-03-28T16:21:49.649Z,3.80
2023-03-28T16:24:17.817Z,5.78
2023-03-28T16:26:45.990Z,6.38
2023-03-28T16:29:14.082Z,5.07
2023-03-28T16:31:42.460Z,3.90
2023-03-28T16:34:11.090Z,3.50
2023-03-28T16:36:40.665Z,4.80
2023-03-28T16:39:09.106Z,5.07
2023-03-28T16:41:37.269Z,2.75
2023-03-28T16:44:05.806Z,5.70
2023-03-28T16:46:33.988Z,4.30
2023-03-28T16:49:02.150Z,9.60
2023-03-28T16:51:30.377Z,4.53
2023-03-28T16:53:59.882Z,8.90
2023-03-28T16:56:28.361Z,4.95
2023-03-28T16:58:56.486Z,8.25
2023-03-28T17:01:24.743Z,7.43
2023-03-28T17:03:53.677Z,6.88
2023-03-28T17:06:21.925Z,5.75
2023-03-28T17:08:53.174Z,9.93
2023-03-28T17:11:23.338Z,9.68
2023-03-28T17:13:54.836Z,4.43
2023-03-28T17:16:23.731Z,4.10
2023-03-28T17:18:53.709Z,2.88
2023-03-28T17:21:21.919Z,5.30
2023-03-28T17:23:51.031Z,4.93
2023-03-28T17:26:19.462Z,6.68
2023-03-28T17:28:50.832Z,6.60
2023-03-28T17:31:21.143Z,5.18
2023-03-28T17:33:49.707Z,14.40
2023-03-28T17:36:21.837Z,5.78
2023-03-28T17:38:50.956Z,5.05
2023-03-28T17:41:19.474Z,5.50
2023-03-28T17:43:48.944Z,4.47
2023-03-28T17:46:17.254Z,8.98
2023-03-28T17:48:45.574Z,9.30
2023-03-28T17:51:13.828Z,6.72
2023-03-28T17:53:43.586Z,11.65
2023-03-28T17:56:12.453Z,13.70
2023-03-28T17:58:40.654Z,10.25
2023-03-28T18:01:11.595Z,9.77
2023-03-28T18:03:40.114Z,11.65
2023-03-28T18:06:09.243Z,12.88
2023-03-28T18:08:37.426Z,9.65
2023-03-28T18:11:07.856Z,8.05
2023-03-28T18:13:36.677Z,11.00
2023-03-28T18:16:05.400Z,8.07
2023-03-28T18:18:35.131Z,10.25
2023-03-28T18:21:04.317Z,8.55
2023-03-28T18:23:32.557Z,12.68
2023-03-28T18:26:00.912Z,8.82
2023-03-28T18:28:29.278Z,7.15
2023-03-28T18:30:58.134Z,4.78
2023-03-28T18:33:26.308Z,5.80
2023-03-28T18:35:55.792Z,8.00
2023-03-28T18:38:23.879Z,11.40
2023-03-28T18:40:53.887Z,9.18
2023-03-28T18:43:22.450Z,11.82
2023-03-28T18:45:55.177Z,6.20
2023-03-28T18:48:23.550Z,10.13
2023-03-28T18:50:51.635Z,6.18
2023-03-28T18:53:22.436Z,10.52
2023-03-28T18:55:51.752Z,7.03
2023-03-28T18:58:20.009Z,5.38
2023-03-28T19:00:48.542Z,6.60
2023-03-28T19:03:17.463Z,9.43
2023-03-28T19:05:45.856Z,5.63
2023-03-28T19:08:13.932Z,9.82
2023-03-28T19:10:47.813Z,8.98
2023-03-28T19:13:16.106Z,6.25
2023-03-28T19:15:44.288Z,4.85
2023-03-28T19:18:13.240Z,10.07
2023-03-28T19:20:41.406Z,5.65
2023-03-28T19:23:09.494Z,16.27
2023-03-28T19:25:37.652Z,13.95
2023-03-28T19:28:07.164Z,6.82
2023-03-28T19:30:39.352Z,10.13
2023-03-28T19:33:07.506Z,7.20
2023-03-28T19:35:35.895Z,7.68
2023-03-28T19:38:04.563Z,8.45
2023-03-28T19:40:32.678Z,6.05
2023-03-28T19:43:00.802Z,7.28
2023-03-28T19:45:30.816Z,9.50
2023-03-28T19:47:59.937Z,3.38
2023-03-28T19:50:28.005Z,6.25
2023-03-28T19:52:56.139Z,4.38
2023-03-28T19:55:24.192Z,5.15
2023-03-28T19:57:52.454Z,7.72
2023-03-28T20:00:21.973Z,5.72
2023-03-28T20:02:51.471Z,10.38
2023-03-28T20:05:20.298Z,10.75
2023-03-28T20:07:49.397Z,5.45
2023-03-28T20:10:17.696Z,7.18
2023-03-28T20:12:45.787Z,6.47
2023-03-28T20:15:13.856Z,7.00
2023-03-28T20:17:42.019Z,10.88
2023-03-28T20:20:12.936Z,8.85
2023-03-28T20:22:41.302Z,5.95
2023-03-28T20:25:10.526Z,5.10
2023-03-28T20:27:38.678Z,6.45
2023-03-28T20:30:08.002Z,7.00
2023-03-28T20:32:36.121Z,7.63
2023-03-28T20:35:04.283Z,16.55
2023-03-28T20:37:34.636Z,6.90
2023-03-28T20:40:11.001Z,5.57
2023-03-28T20:42:40.877Z,6.43
2023-03-28T20:45:13.941Z,10.98
2023-03-28T20:50:11.959Z,9.95
2023-03-28T20:52:42.490Z,8.23
2023-03-28T20:55:12.170Z,6.53
2023-03-28T20:57:42.364Z,12.30
2023-03-28T21:00:14.419Z,10.57
2023-03-28T21:02:42.884Z,9.88
2023-03-28T21:05:12.481Z,7.40
2023-03-28T21:07:44.030Z,8.30
2023-03-28T21:10:12.619Z,9.82
2023-03-28T21:12:41.372Z,9.15
2023-03-28T21:15:11.339Z,6.97
2023-03-28T21:17:39.621Z,9.27
2023-03-28T21:20:10.306Z,8.23
2023-03-28T21:22:39.108Z,9.65
2023-03-28T21:25:10.509Z,6.18
2023-03-28T21:27:38.693Z,12.18
2023-03-28T21:30:08.450Z,7.88
2023-03-28T21:32:36.708Z,9.85
2023-03-28T21:35:05.411Z,7.50
2023-03-28T21:37:33.649Z,6.22
2023-03-28T21:40:01.715Z,8.70
2023-03-28T21:42:31.611Z,6.57
2023-03-28T21:44:59.784Z,6.55
2023-03-28T21:47:28.106Z,7.95
2023-03-28T21:49:56.433Z,6.68
2023-03-28T21:52:24.596Z,5.07
2023-03-28T21:54:52.722Z,9.07
2023-03-28T21:57:20.886Z,6.55
2023-03-28T21:59:50.496Z,13.68
2023-03-28T22:02:18.789Z,5.68
2023-03-28T22:04:47.174Z,11.10
2023-03-28T22:07:15.305Z,5.55
2023-03-28T22:09:44.600Z,10.60
2023-03-28T22:12:14.861Z,10.82
2023-03-28T22:14:43.001Z,8.82
2023-03-28T22:17:12.700Z,9.80
2023-03-28T22:19:40.829Z,9.30
2023-03-28T22:22:11.104Z,6.07
2023-03-28T22:24:39.285Z,4.40
2023-03-28T22:27:07.580Z,10.90
2023-03-28T22:29:35.689Z,4.95
2023-03-28T22:32:04.004Z,9.60
2023-03-28T22:34:33.689Z,6.47
2023-03-28T22:37:01.778Z,4.50
2023-03-28T22:39:29.883Z,5.90
2023-03-28T22:41:58.395Z,7.50
2023-03-28T22:44:27.361Z,5.85
2023-03-28T22:47:01.956Z,8.20
2023-03-28T22:49:30.398Z,4.78
2023-03-28T22:52:01.947Z,8.02
2023-03-28T22:54:30.761Z,6.88
2023-03-28T22:56:59.417Z,6.68
2023-03-28T22:59:28.135Z,5.50
2023-03-28T23:01:56.374Z,8.18
2023-03-28T23:04:24.753Z,11.45
2023-03-28T23:06:53.652Z,7.50
2023-03-28T23:09:24.741Z,9.73
2023-03-28T23:11:55.049Z,3.75
2023-03-28T23:14:23.376Z,5.65
2023-03-28T23:16:52.437Z,5.72
2023-03-28T23:19:20.632Z,4.53
2023-03-28T23:21:48.734Z,5.32
2023-03-28T23:24:16.858Z,4.13
2023-03-28T23:26:46.661Z,3.97
2023-03-28T23:29:14.744Z,6.95
2023-03-28T23:31:42.851Z,5.35
2023-03-28T23:34:10.983Z,5.75
2023-03-28T23:36:41.359Z,4.95
2023-03-28T23:39:11.084Z,4.70
2023-03-28T23:41:39.180Z,3.55
2023-03-28T23:44:08.749Z,4.60
2023-03-28T23:46:37.255Z,6.88
2023-03-28T23:49:05.412Z,10.10
2023-03-28T23:51:33.532Z,6.53
2023-03-28T23:54:01.612Z,4.85
2023-03-28T23:56:31.375Z,4.82
2023-03-28T23:58:59.509Z,6.82
